sensor_id;sensor_type;location;lat;lon;timestamp;P1;durP1;ratioP1;P2;durP2;ratioP2
39442;SDS011;25147;52.142;9.960;2023-05-27T00:02:18;16.77;;;6.07;;
39442;SDS011;25147;52.142;9.960;2023-05-27T00:04:45;15.52;;;6.35;;
39442;SDS011;25147;52.142;9.960;2023-05-27T00:07:12;17.55;;;6.03;;
39442;SDS011;25147;52.142;9.960;2023-05-27T00:09:39;23.13;;;7.45;;
39442;SDS011;25147;52.142;9.960;2023-05-27T00:12:06;16.55;;;6.72;;
39442;SDS011;25147;52.142;9.960;2023-05-27T00:14:34;18.33;;;7.03;;
39442;SDS011;25147;52.142;9.960;2023-05-27T00:17:01;19.77;;;7.30;;
39442;SDS011;25147;52.142;9.960;2023-05-27T00:19:29;19.00;;;6.95;;
39442;SDS011;25147;52.142;9.960;2023-05-27T00:21:56;22.25;;;7.20;;
39442;SDS011;25147;52.142;9.960;2023-05-27T00:24:22;14.68;;;6.43;;
39442;SDS011;25147;52.142;9.960;2023-05-27T00:26:50;15.43;;;7.32;;
39442;SDS011;25147;52.142;9.960;2023-05-27T00:29:17;18.45;;;6.60;;
39442;SDS011;25147;52.142;9.960;2023-05-27T00:31:45;17.88;;;7.20;;
39442;SDS011;25147;52.142;9.960;2023-05-27T00:34:12;19.83;;;6.38;;
39442;SDS011;25147;52.142;9.960;2023-05-27T00:36:39;20.10;;;6.80;;
39442;SDS011;25147;52.142;9.960;2023-05-27T00:39:05;17.60;;;6.18;;
39442;SDS011;25147;52.142;9.960;2023-05-27T00:41:32;21.08;;;6.65;;
39442;SDS011;25147;52.142;9.960;2023-05-27T00:44:00;21.45;;;7.15;;
39442;SDS011;25147;52.142;9.960;2023-05-27T00:46:27;17.85;;;6.43;;
39442;SDS011;25147;52.142;9.960;2023-05-27T00:48:55;19.88;;;6.20;;
39442;SDS011;25147;52.142;9.960;2023-05-27T00:51:22;14.50;;;6.43;;
39442;SDS011;25147;52.142;9.960;2023-05-27T00:53:50;16.17;;;5.63;;
39442;SDS011;25147;52.142;9.960;2023-05-27T00:56:16;19.35;;;7.22;;
39442;SDS011;25147;52.142;9.960;2023-05-27T00:58:43;16.80;;;6.60;;
39442;SDS011;25147;52.142;9.960;2023-05-27T01:01:11;17.65;;;6.20;;
39442;SDS011;25147;52.142;9.960;2023-05-27T01:03:38;22.48;;;7.55;;
39442;SDS011;25147;52.142;9.960;2023-05-27T01:06:10;19.23;;;6.82;;
39442;SDS011;25147;52.142;9.960;2023-05-27T01:08:47;16.48;;;7.15;;
39442;SDS011;25147;52.142;9.960;2023-05-27T01:11:27;16.40;;;6.93;;
39442;SDS011;25147;52.142;9.960;2023-05-27T01:13:58;15.82;;;6.95;;
39442;SDS011;25147;52.142;9.960;2023-05-27T01:16:31;20.77;;;6.32;;
39442;SDS011;25147;52.142;9.960;2023-05-27T01:18:58;13.23;;;6.43;;
39442;SDS011;25147;52.142;9.960;2023-05-27T01:21:30;22.15;;;6.57;;
39442;SDS011;25147;52.142;9.960;2023-05-27T01:24:04;16.65;;;6.72;;
39442;SDS011;25147;52.142;9.960;2023-05-27T01:26:31;20.25;;;6.60;;
39442;SDS011;25147;52.142;9.960;2023-05-27T01:28:58;16.48;;;5.93;;
39442;SDS011;25147;52.142;9.960;2023-05-27T01:31:26;15.27;;;6.57;;
39442;SDS011;25147;52.142;9.960;2023-05-27T01:34:01;17.30;;;6.82;;
39442;SDS011;25147;52.142;9.960;2023-05-27T01:36:33;15.82;;;6.85;;
39442;SDS011;25147;52.142;9.960;2023-05-27T01:39:05;19.77;;;7.20;;
39442;SDS011;25147;52.142;9.960;2023-05-27T01:41:36;16.02;;;6.75;;
39442;SDS011;25147;52.142;9.960;2023-05-27T01:44:04;17.08;;;7.07;;
39442;SDS011;25147;52.142;9.960;2023-05-27T01:46:32;15.50;;;6.50;;
39442;SDS011;25147;52.142;9.960;2023-05-27T01:48:59;16.65;;;6.30;;
39442;SDS011;25147;52.142;9.960;2023-05-27T01:51:26;19.60;;;6.50;;
39442;SDS011;25147;52.142;9.960;2023-05-27T01:53:52;15.68;;;6.70;;
39442;SDS011;25147;52.142;9.960;2023-05-27T01:56:21;23.90;;;7.30;;
39442;SDS011;25147;52.142;9.960;2023-05-27T01:58:48;20.98;;;7.82;;
39442;SDS011;25147;52.142;9.960;2023-05-27T02:01:15;18.00;;;7.30;;
39442;SDS011;25147;52.142;9.960;2023-05-27T02:03:42;20.55;;;6.88;;
39442;SDS011;25147;52.142;9.960;2023-05-27T02:06:09;18.15;;;7.28;;
39442;SDS011;25147;52.142;9.960;2023-05-27T02:08:36;17.83;;;7.15;;
39442;SDS011;25147;52.142;9.960;2023-05-27T02:11:03;15.85;;;7.20;;
39442;SDS011;25147;52.142;9.960;2023-05-27T02:13:32;18.23;;;7.43;;
39442;SDS011;25147;52.142;9.960;2023-05-27T02:15:59;20.80;;;8.10;;
39442;SDS011;25147;52.142;9.960;2023-05-27T02:18:26;19.48;;;7.68;;
39442;SDS011;25147;52.142;9.960;2023-05-27T02:20:52;16.63;;;7.30;;
39442;SDS011;25147;52.142;9.960;2023-05-27T02:23:22;20.60;;;7.30;;
39442;SDS011;25147;52.142;9.960;2023-05-27T02:25:48;15.02;;;6.50;;
39442;SDS011;25147;52.142;9.960;2023-05-27T02:28:15;17.40;;;7.43;;
39442;SDS011;25147;52.142;9.960;2023-05-27T02:30:44;14.43;;;6.78;;
39442;SDS011;25147;52.142;9.960;2023-05-27T02:33:10;16.77;;;6.60;;
39442;SDS011;25147;52.142;9.960;2023-05-27T02:35:37;13.98;;;7.10;;
39442;SDS011;25147;52.142;9.960;2023-05-27T02:38:04;18.77;;;7.00;;
39442;SDS011;25147;52.142;9.960;2023-05-27T02:40:31;17.23;;;7.18;;
39442;SDS011;25147;52.142;9.960;2023-05-27T02:42:58;14.10;;;7.70;;
39442;SDS011;25147;52.142;9.960;2023-05-27T02:45:25;22.15;;;7.20;;
39442;SDS011;25147;52.142;9.960;2023-05-27T02:47:53;17.77;;;6.80;;
39442;SDS011;25147;52.142;9.960;2023-05-27T02:50:22;14.70;;;6.90;;
39442;SDS011;25147;52.142;9.960;2023-05-27T02:52:48;14.70;;;6.50;;
39442;SDS011;25147;52.142;9.960;2023-05-27T02:55:15;15.15;;;7.28;;
39442;SDS011;25147;52.142;9.960;2023-05-27T02:57:42;14.45;;;6.47;;
39442;SDS011;25147;52.142;9.960;2023-05-27T03:00:09;10.48;;;6.30;;
39442;SDS011;25147;52.142;9.960;2023-05-27T03:02:37;15.73;;;6.53;;
39442;SDS011;25147;52.142;9.960;2023-05-27T03:05:05;14.57;;;6.75;;
39442;SDS011;25147;52.142;9.960;2023-05-27T03:07:33;16.25;;;6.53;;
39442;SDS011;25147;52.142;9.960;2023-05-27T03:09:59;18.08;;;7.10;;
39442;SDS011;25147;52.142;9.960;2023-05-27T03:12:26;20.80;;;7.15;;
39442;SDS011;25147;52.142;9.960;2023-05-27T03:14:53;13.13;;;6.45;;
39442;SDS011;25147;52.142;9.960;2023-05-27T03:17:21;15.25;;;6.88;;
39442;SDS011;25147;52.142;9.960;2023-05-27T03:19:48;18.30;;;7.07;;
39442;SDS011;25147;52.142;9.960;2023-05-27T03:22:16;14.75;;;6.72;;
39442;SDS011;25147;52.142;9.960;2023-05-27T03:24:43;16.77;;;7.72;;
39442;SDS011;25147;52.142;9.960;2023-05-27T03:27:10;17.13;;;7.30;;
39442;SDS011;25147;52.142;9.960;2023-05-27T03:29:37;18.00;;;7.22;;
39442;SDS011;25147;52.142;9.960;2023-05-27T03:32:07;16.60;;;6.97;;
39442;SDS011;25147;52.142;9.960;2023-05-27T03:34:34;18.77;;;7.60;;
39442;SDS011;25147;52.142;9.960;2023-05-27T03:37:00;18.90;;;7.57;;
39442;SDS011;25147;52.142;9.960;2023-05-27T03:39:28;15.60;;;7.00;;
39442;SDS011;25147;52.142;9.960;2023-05-27T03:41:55;15.77;;;7.30;;
39442;SDS011;25147;52.142;9.960;2023-05-27T03:44:22;17.42;;;7.25;;
39442;SDS011;25147;52.142;9.960;2023-05-27T03:46:49;15.35;;;6.65;;
39442;SDS011;25147;52.142;9.960;2023-05-27T03:49:15;16.27;;;6.63;;
39442;SDS011;25147;52.142;9.960;2023-05-27T03:51:42;13.57;;;6.65;;
39442;SDS011;25147;52.142;9.960;2023-05-27T03:54:09;14.25;;;6.28;;
39442;SDS011;25147;52.142;9.960;2023-05-27T03:56:38;15.02;;;6.45;;
39442;SDS011;25147;52.142;9.960;2023-05-27T03:59:04;11.50;;;5.63;;
39442;SDS011;25147;52.142;9.960;2023-05-27T04:01:32;12.07;;;6.18;;
39442;SDS011;25147;52.142;9.960;2023-05-27T04:03:59;11.50;;;6.18;;
39442;SDS011;25147;52.142;9.960;2023-05-27T04:06:26;22.13;;;7.38;;
39442;SDS011;25147;52.142;9.960;2023-05-27T04:08:53;16.90;;;7.47;;
39442;SDS011;25147;52.142;9.960;2023-05-27T04:11:20;14.57;;;7.32;;
39442;SDS011;25147;52.142;9.960;2023-05-27T04:13:49;20.23;;;8.13;;
39442;SDS011;25147;52.142;9.960;2023-05-27T04:16:16;17.92;;;7.70;;
39442;SDS011;25147;52.142;9.960;2023-05-27T04:18:43;17.20;;;8.02;;
39442;SDS011;25147;52.142;9.960;2023-05-27T04:21:17;19.60;;;7.63;;
39442;SDS011;25147;52.142;9.960;2023-05-27T04:23:44;14.05;;;7.35;;
39442;SDS011;25147;52.142;9.960;2023-05-27T04:26:11;19.13;;;7.22;;
39442;SDS011;25147;52.142;9.960;2023-05-27T04:28:38;17.30;;;7.38;;
39442;SDS011;25147;52.142;9.960;2023-05-27T04:31:10;14.90;;;7.38;;
39442;SDS011;25147;52.142;9.960;2023-05-27T04:33:37;18.63;;;7.10;;
39442;SDS011;25147;52.142;9.960;2023-05-27T04:36:05;14.68;;;7.22;;
39442;SDS011;25147;52.142;9.960;2023-05-27T04:38:32;16.08;;;7.35;;
39442;SDS011;25147;52.142;9.960;2023-05-27T04:40:59;17.40;;;7.40;;
39442;SDS011;25147;52.142;9.960;2023-05-27T04:43:26;18.60;;;7.82;;
39442;SDS011;25147;52.142;9.960;2023-05-27T04:45:55;17.02;;;6.93;;
39442;SDS011;25147;52.142;9.960;2023-05-27T04:48:26;13.25;;;6.50;;
39442;SDS011;25147;52.142;9.960;2023-05-27T04:50:53;14.95;;;7.03;;
39442;SDS011;25147;52.142;9.960;2023-05-27T04:53:20;15.32;;;7.10;;
39442;SDS011;25147;52.142;9.960;2023-05-27T04:55:47;16.35;;;6.72;;
39442;SDS011;25147;52.142;9.960;2023-05-27T04:58:13;12.25;;;6.20;;
39442;SDS011;25147;52.142;9.960;2023-05-27T05:00:40;14.27;;;6.53;;
39442;SDS011;25147;52.142;9.960;2023-05-27T05:03:15;15.02;;;6.75;;
39442;SDS011;25147;52.142;9.960;2023-05-27T05:05:48;12.38;;;6.10;;
39442;SDS011;25147;52.142;9.960;2023-05-27T05:08:16;15.70;;;6.25;;
39442;SDS011;25147;52.142;9.960;2023-05-27T05:10:43;14.38;;;6.18;;
39442;SDS011;25147;52.142;9.960;2023-05-27T05:13:12;13.38;;;6.38;;
39442;SDS011;25147;52.142;9.960;2023-05-27T05:15:39;14.68;;;6.55;;
39442;SDS011;25147;52.142;9.960;2023-05-27T05:18:08;14.98;;;6.70;;
39442;SDS011;25147;52.142;9.960;2023-05-27T05:20:35;16.70;;;5.97;;
39442;SDS011;25147;52.142;9.960;2023-05-27T05:23:07;19.13;;;6.72;;
39442;SDS011;25147;52.142;9.960;2023-05-27T05:25:34;13.85;;;6.13;;
39442;SDS011;25147;52.142;9.960;2023-05-27T05:28:03;17.48;;;7.18;;
39442;SDS011;25147;52.142;9.960;2023-05-27T05:30:30;24.35;;;7.32;;
39442;SDS011;25147;52.142;9.960;2023-05-27T05:33:00;16.05;;;7.55;;
39442;SDS011;25147;52.142;9.960;2023-05-27T05:35:27;18.15;;;6.85;;
39442;SDS011;25147;52.142;9.960;2023-05-27T05:37:54;16.35;;;7.32;;
39442;SDS011;25147;52.142;9.960;2023-05-27T05:40:22;21.45;;;8.90;;
39442;SDS011;25147;52.142;9.960;2023-05-27T05:42:49;20.27;;;8.57;;
39442;SDS011;25147;52.142;9.960;2023-05-27T05:45:16;19.90;;;8.52;;
39442;SDS011;25147;52.142;9.960;2023-05-27T05:47:42;20.52;;;8.98;;
39442;SDS011;25147;52.142;9.960;2023-05-27T05:50:09;29.83;;;9.10;;
39442;SDS011;25147;52.142;9.960;2023-05-27T05:52:36;21.05;;;8.38;;
39442;SDS011;25147;52.142;9.960;2023-05-27T05:55:03;25.10;;;9.05;;
39442;SDS011;25147;52.142;9.960;2023-05-27T05:57:32;17.65;;;8.65;;
39442;SDS011;25147;52.142;9.960;2023-05-27T05:59:59;22.15;;;8.27;;
39442;SDS011;25147;52.142;9.960;2023-05-27T06:02:26;15.40;;;8.35;;
39442;SDS011;25147;52.142;9.960;2023-05-27T06:04:52;25.73;;;8.10;;
39442;SDS011;25147;52.142;9.960;2023-05-27T06:07:19;18.40;;;7.68;;
39442;SDS011;25147;52.142;9.960;2023-05-27T06:09:46;22.60;;;7.93;;
39442;SDS011;25147;52.142;9.960;2023-05-27T06:12:14;19.15;;;8.07;;
39442;SDS011;25147;52.142;9.960;2023-05-27T06:14:42;15.70;;;7.75;;
39442;SDS011;25147;52.142;9.960;2023-05-27T06:17:08;19.52;;;7.80;;
39442;SDS011;25147;52.142;9.960;2023-05-27T06:19:35;23.33;;;8.35;;
39442;SDS011;25147;52.142;9.960;2023-05-27T06:22:02;21.15;;;8.45;;
39442;SDS011;25147;52.142;9.960;2023-05-27T06:24:30;18.50;;;8.52;;
39442;SDS011;25147;52.142;9.960;2023-05-27T06:26:57;17.25;;;8.27;;
39442;SDS011;25147;52.142;9.960;2023-05-27T06:29:23;20.30;;;8.73;;
39442;SDS011;25147;52.142;9.960;2023-05-27T06:31:51;20.88;;;9.50;;
39442;SDS011;25147;52.142;9.960;2023-05-27T06:34:19;17.85;;;8.88;;
39442;SDS011;25147;52.142;9.960;2023-05-27T06:36:46;17.73;;;8.98;;
39442;SDS011;25147;52.142;9.960;2023-05-27T06:39:14;20.90;;;8.90;;
39442;SDS011;25147;52.142;9.960;2023-05-27T06:41:41;19.35;;;8.38;;
39442;SDS011;25147;52.142;9.960;2023-05-27T06:44:08;19.63;;;8.88;;
39442;SDS011;25147;52.142;9.960;2023-05-27T06:46:34;23.42;;;9.07;;
39442;SDS011;25147;52.142;9.960;2023-05-27T06:49:03;15.55;;;8.07;;
39442;SDS011;25147;52.142;9.960;2023-05-27T06:51:29;19.90;;;9.68;;
39442;SDS011;25147;52.142;9.960;2023-05-27T06:53:57;14.93;;;8.15;;
39442;SDS011;25147;52.142;9.960;2023-05-27T06:56:24;15.25;;;8.15;;
39442;SDS011;25147;52.142;9.960;2023-05-27T06:58:52;21.17;;;8.10;;
39442;SDS011;25147;52.142;9.960;2023-05-27T07:01:18;20.90;;;8.73;;
39442;SDS011;25147;52.142;9.960;2023-05-27T07:03:46;15.00;;;8.70;;
39442;SDS011;25147;52.142;9.960;2023-05-27T07:06:14;20.02;;;8.48;;
39442;SDS011;25147;52.142;9.960;2023-05-27T07:08:41;24.63;;;8.57;;
39442;SDS011;25147;52.142;9.960;2023-05-27T07:11:08;23.80;;;8.88;;
39442;SDS011;25147;52.142;9.960;2023-05-27T07:13:35;15.77;;;7.40;;
39442;SDS011;25147;52.142;9.960;2023-05-27T07:16:01;18.92;;;8.55;;
39442;SDS011;25147;52.142;9.960;2023-05-27T07:18:28;15.20;;;8.23;;
39442;SDS011;25147;52.142;9.960;2023-05-27T07:20:55;17.35;;;7.70;;
39442;SDS011;25147;52.142;9.960;2023-05-27T07:23:23;24.65;;;9.63;;
39442;SDS011;25147;52.142;9.960;2023-05-27T07:25:50;21.35;;;7.82;;
39442;SDS011;25147;52.142;9.960;2023-05-27T07:28:17;20.58;;;8.30;;
39442;SDS011;25147;52.142;9.960;2023-05-27T07:30:44;20.98;;;8.18;;
39442;SDS011;25147;52.142;9.960;2023-05-27T07:33:10;19.38;;;7.97;;
39442;SDS011;25147;52.142;9.960;2023-05-27T07:35:37;16.77;;;8.07;;
39442;SDS011;25147;52.142;9.960;2023-05-27T07:38:08;22.17;;;8.40;;
39442;SDS011;25147;52.142;9.960;2023-05-27T07:40:36;13.48;;;7.45;;
39442;SDS011;25147;52.142;9.960;2023-05-27T07:43:03;22.27;;;8.52;;
39442;SDS011;25147;52.142;9.960;2023-05-27T07:45:30;16.33;;;7.35;;
39442;SDS011;25147;52.142;9.960;2023-05-27T07:47:57;16.75;;;8.25;;
39442;SDS011;25147;52.142;9.960;2023-05-27T07:50:24;15.90;;;7.00;;
39442;SDS011;25147;52.142;9.960;2023-05-27T07:52:51;16.33;;;7.78;;
39442;SDS011;25147;52.142;9.960;2023-05-27T07:55:21;19.25;;;8.10;;
39442;SDS011;25147;52.142;9.960;2023-05-27T07:57:49;15.55;;;7.65;;
39442;SDS011;25147;52.142;9.960;2023-05-27T08:00:16;17.15;;;7.38;;
39442;SDS011;25147;52.142;9.960;2023-05-27T08:02:43;15.75;;;6.18;;
39442;SDS011;25147;52.142;9.960;2023-05-27T08:05:10;18.17;;;7.93;;
39442;SDS011;25147;52.142;9.960;2023-05-27T08:07:37;15.90;;;6.78;;
39442;SDS011;25147;52.142;9.960;2023-05-27T08:10:04;13.20;;;6.85;;
39442;SDS011;25147;52.142;9.960;2023-05-27T08:12:33;14.60;;;6.53;;
39442;SDS011;25147;52.142;9.960;2023-05-27T08:15:01;19.15;;;7.50;;
39442;SDS011;25147;52.142;9.960;2023-05-27T08:17:31;15.23;;;6.43;;
39442;SDS011;25147;52.142;9.960;2023-05-27T08:19:57;15.88;;;6.47;;
39442;SDS011;25147;52.142;9.960;2023-05-27T08:22:24;16.38;;;6.28;;
39442;SDS011;25147;52.142;9.960;2023-05-27T08:24:51;15.10;;;5.88;;
39442;SDS011;25147;52.142;9.960;2023-05-27T08:27:19;14.10;;;6.15;;
39442;SDS011;25147;52.142;9.960;2023-05-27T08:29:46;15.25;;;5.72;;
39442;SDS011;25147;52.142;9.960;2023-05-27T08:32:17;13.43;;;6.68;;
39442;SDS011;25147;52.142;9.960;2023-05-27T08:34:44;19.10;;;7.65;;
39442;SDS011;25147;52.142;9.960;2023-05-27T08:37:11;15.60;;;6.45;;
39442;SDS011;25147;52.142;9.960;2023-05-27T08:39:38;14.73;;;6.28;;
39442;SDS011;25147;52.142;9.960;2023-05-27T08:42:05;18.00;;;6.75;;
39442;SDS011;25147;52.142;9.960;2023-05-27T08:44:33;15.05;;;6.18;;
39442;SDS011;25147;52.142;9.960;2023-05-27T08:46:59;13.48;;;6.53;;
39442;SDS011;25147;52.142;9.960;2023-05-27T08:49:27;16.35;;;6.47;;
39442;SDS011;25147;52.142;9.960;2023-05-27T08:51:55;14.05;;;6.75;;
39442;SDS011;25147;52.142;9.960;2023-05-27T08:54:24;15.93;;;7.22;;
39442;SDS011;25147;52.142;9.960;2023-05-27T08:56:51;12.65;;;6.30;;
39442;SDS011;25147;52.142;9.960;2023-05-27T08:59:21;14.20;;;6.93;;
39442;SDS011;25147;52.142;9.960;2023-05-27T09:01:48;17.30;;;6.22;;
39442;SDS011;25147;52.142;9.960;2023-05-27T09:04:16;13.52;;;5.35;;
39442;SDS011;25147;52.142;9.960;2023-05-27T09:06:44;13.73;;;6.35;;
39442;SDS011;25147;52.142;9.960;2023-05-27T09:09:11;16.23;;;6.53;;
39442;SDS011;25147;52.142;9.960;2023-05-27T09:11:38;15.52;;;6.20;;
39442;SDS011;25147;52.142;9.960;2023-05-27T09:14:06;16.25;;;6.20;;
39442;SDS011;25147;52.142;9.960;2023-05-27T09:16:32;15.60;;;5.60;;
39442;SDS011;25147;52.142;9.960;2023-05-27T09:18:59;15.30;;;6.22;;
39442;SDS011;25147;52.142;9.960;2023-05-27T09:21:26;14.90;;;6.05;;
39442;SDS011;25147;52.142;9.960;2023-05-27T09:23:56;13.10;;;6.15;;
39442;SDS011;25147;52.142;9.960;2023-05-27T09:26:23;17.75;;;6.00;;
39442;SDS011;25147;52.142;9.960;2023-05-27T09:28:52;17.85;;;6.57;;
39442;SDS011;25147;52.142;9.960;2023-05-27T09:31:20;16.20;;;6.03;;
39442;SDS011;25147;52.142;9.960;2023-05-27T09:33:48;11.60;;;5.68;;
39442;SDS011;25147;52.142;9.960;2023-05-27T09:36:19;13.15;;;6.07;;
39442;SDS011;25147;52.142;9.960;2023-05-27T09:38:47;18.42;;;6.93;;
39442;SDS011;25147;52.142;9.960;2023-05-27T09:41:22;20.15;;;6.30;;
39442;SDS011;25147;52.142;9.960;2023-05-27T09:43:53;18.35;;;6.80;;
39442;SDS011;25147;52.142;9.960;2023-05-27T09:46:21;18.63;;;7.18;;
39442;SDS011;25147;52.142;9.960;2023-05-27T09:48:49;16.50;;;5.90;;
39442;SDS011;25147;52.142;9.960;2023-05-27T09:51:16;15.73;;;6.47;;
39442;SDS011;25147;52.142;9.960;2023-05-27T09:53:42;12.93;;;5.93;;
39442;SDS011;25147;52.142;9.960;2023-05-27T09:56:12;12.70;;;6.65;;
39442;SDS011;25147;52.142;9.960;2023-05-27T09:58:41;12.65;;;5.47;;
39442;SDS011;25147;52.142;9.960;2023-05-27T10:01:09;13.65;;;6.13;;
39442;SDS011;25147;52.142;9.960;2023-05-27T10:03:36;13.45;;;5.97;;
39442;SDS011;25147;52.142;9.960;2023-05-27T10:06:04;13.68;;;6.03;;
39442;SDS011;25147;52.142;9.960;2023-05-27T10:08:31;11.73;;;5.53;;
39442;SDS011;25147;52.142;9.960;2023-05-27T10:10:58;16.63;;;6.50;;
39442;SDS011;25147;52.142;9.960;2023-05-27T10:13:26;15.18;;;6.25;;
39442;SDS011;25147;52.142;9.960;2023-05-27T10:15:55;11.43;;;5.47;;
39442;SDS011;25147;52.142;9.960;2023-05-27T10:18:22;11.45;;;5.53;;
39442;SDS011;25147;52.142;9.960;2023-05-27T10:20:50;14.65;;;5.43;;
39442;SDS011;25147;52.142;9.960;2023-05-27T10:23:18;12.82;;;6.10;;
39442;SDS011;25147;52.142;9.960;2023-05-27T10:25:47;11.60;;;6.05;;
39442;SDS011;25147;52.142;9.960;2023-05-27T10:28:24;15.80;;;6.13;;
39442;SDS011;25147;52.142;9.960;2023-05-27T10:31:04;13.73;;;5.53;;
39442;SDS011;25147;52.142;9.960;2023-05-27T10:33:34;12.52;;;4.90;;
39442;SDS011;25147;52.142;9.960;2023-05-27T10:36:03;13.77;;;5.30;;
39442;SDS011;25147;52.142;9.960;2023-05-27T10:38:30;10.75;;;4.15;;
39442;SDS011;25147;52.142;9.960;2023-05-27T10:40:58;10.48;;;3.85;;
39442;SDS011;25147;52.142;9.960;2023-05-27T10:43:27;11.32;;;4.55;;
39442;SDS011;25147;52.142;9.960;2023-05-27T10:46:00;9.07;;;4.47;;
39442;SDS011;25147;52.142;9.960;2023-05-27T10:48:30;12.20;;;5.00;;
39442;SDS011;25147;52.142;9.960;2023-05-27T10:50:58;11.50;;;5.40;;
39442;SDS011;25147;52.142;9.960;2023-05-27T10:53:25;11.23;;;4.93;;
39442;SDS011;25147;52.142;9.960;2023-05-27T10:55:53;12.40;;;4.78;;
39442;SDS011;25147;52.142;9.960;2023-05-27T10:58:21;10.80;;;4.65;;
39442;SDS011;25147;52.142;9.960;2023-05-27T11:00:50;14.57;;;4.50;;
39442;SDS011;25147;52.142;9.960;2023-05-27T11:03:18;9.90;;;4.22;;
39442;SDS011;25147;52.142;9.960;2023-05-27T11:05:57;12.73;;;4.80;;
39442;SDS011;25147;52.142;9.960;2023-05-27T11:08:25;10.25;;;4.18;;
39442;SDS011;25147;52.142;9.960;2023-05-27T11:10:57;13.27;;;4.32;;
39442;SDS011;25147;52.142;9.960;2023-05-27T11:13:28;13.35;;;4.50;;
39442;SDS011;25147;52.142;9.960;2023-05-27T11:15:59;7.68;;;4.07;;
39442;SDS011;25147;52.142;9.960;2023-05-27T11:18:33;11.15;;;4.55;;
39442;SDS011;25147;52.142;9.960;2023-05-27T11:21:02;12.52;;;4.82;;
39442;SDS011;25147;52.142;9.960;2023-05-27T11:23:33;9.70;;;3.83;;
39442;SDS011;25147;52.142;9.960;2023-05-27T11:26:01;9.88;;;3.63;;
39442;SDS011;25147;52.142;9.960;2023-05-27T11:28:28;10.10;;;3.78;;
39442;SDS011;25147;52.142;9.960;2023-05-27T11:30:57;6.72;;;3.50;;
39442;SDS011;25147;52.142;9.960;2023-05-27T11:33:29;9.50;;;3.38;;
39442;SDS011;25147;52.142;9.960;2023-05-27T11:36:04;11.85;;;4.18;;
39442;SDS011;25147;52.142;9.960;2023-05-27T11:38:31;10.60;;;3.90;;
39442;SDS011;25147;52.142;9.960;2023-05-27T11:41:11;5.90;;;3.30;;
39442;SDS011;25147;52.142;9.960;2023-05-27T11:43:45;7.75;;;3.70;;
39442;SDS011;25147;52.142;9.960;2023-05-27T11:46:13;9.85;;;4.22;;
39442;SDS011;25147;52.142;9.960;2023-05-27T11:48:40;11.18;;;4.38;;
39442;SDS011;25147;52.142;9.960;2023-05-27T11:51:13;11.32;;;4.28;;
39442;SDS011;25147;52.142;9.960;2023-05-27T11:53:40;13.18;;;3.75;;
39442;SDS011;25147;52.142;9.960;2023-05-27T11:56:10;10.30;;;3.80;;
39442;SDS011;25147;52.142;9.960;2023-05-27T11:58:37;7.38;;;4.20;;
39442;SDS011;25147;52.142;9.960;2023-05-27T12:01:04;11.60;;;4.15;;
39442;SDS011;25147;52.142;9.960;2023-05-27T12:03:32;8.98;;;3.65;;
39442;SDS011;25147;52.142;9.960;2023-05-27T12:06:03;7.80;;;3.70;;
39442;SDS011;25147;52.142;9.960;2023-05-27T12:08:31;10.68;;;4.35;;
39442;SDS011;25147;52.142;9.960;2023-05-27T12:10:58;10.15;;;4.15;;
39442;SDS011;25147;52.142;9.960;2023-05-27T12:13:25;8.65;;;4.07;;
39442;SDS011;25147;52.142;9.960;2023-05-27T12:15:53;7.28;;;3.95;;
39442;SDS011;25147;52.142;9.960;2023-05-27T12:18:19;7.57;;;3.72;;
39442;SDS011;25147;52.142;9.960;2023-05-27T12:20:46;10.60;;;3.83;;
39442;SDS011;25147;52.142;9.960;2023-05-27T12:23:13;12.85;;;4.10;;
39442;SDS011;25147;52.142;9.960;2023-05-27T12:25:41;8.35;;;3.70;;
39442;SDS011;25147;52.142;9.960;2023-05-27T12:28:08;8.38;;;3.80;;
39442;SDS011;25147;52.142;9.960;2023-05-27T12:30:36;7.75;;;4.10;;
39442;SDS011;25147;52.142;9.960;2023-05-27T12:33:03;10.27;;;4.43;;
39442;SDS011;25147;52.142;9.960;2023-05-27T12:35:30;10.00;;;3.63;;
39442;SDS011;25147;52.142;9.960;2023-05-27T12:37:58;9.82;;;3.60;;
39442;SDS011;25147;52.142;9.960;2023-05-27T12:40:26;7.70;;;3.78;;
39442;SDS011;25147;52.142;9.960;2023-05-27T12:42:54;7.05;;;3.88;;
39442;SDS011;25147;52.142;9.960;2023-05-27T12:45:21;9.27;;;4.18;;
39442;SDS011;25147;52.142;9.960;2023-05-27T12:47:51;7.93;;;3.78;;
39442;SDS011;25147;52.142;9.960;2023-05-27T12:50:18;7.65;;;4.25;;
39442;SDS011;25147;52.142;9.960;2023-05-27T12:52:45;8.70;;;4.35;;
39442;SDS011;25147;52.142;9.960;2023-05-27T12:55:12;8.82;;;4.18;;
39442;SDS011;25147;52.142;9.960;2023-05-27T12:57:39;8.07;;;3.88;;
39442;SDS011;25147;52.142;9.960;2023-05-27T13:00:08;9.15;;;3.83;;
39442;SDS011;25147;52.142;9.960;2023-05-27T13:02:36;10.23;;;3.85;;
39442;SDS011;25147;52.142;9.960;2023-05-27T13:05:04;9.05;;;3.92;;
39442;SDS011;25147;52.142;9.960;2023-05-27T13:07:31;11.35;;;4.43;;
39442;SDS011;25147;52.142;9.960;2023-05-27T13:09:59;9.05;;;4.07;;
39442;SDS011;25147;52.142;9.960;2023-05-27T13:12:28;7.50;;;4.05;;
39442;SDS011;25147;52.142;9.960;2023-05-27T13:14:55;9.18;;;4.10;;
39442;SDS011;25147;52.142;9.960;2023-05-27T13:17:24;7.93;;;3.92;;
39442;SDS011;25147;52.142;9.960;2023-05-27T13:19:51;8.57;;;3.72;;
39442;SDS011;25147;52.142;9.960;2023-05-27T13:22:18;9.05;;;4.00;;
39442;SDS011;25147;52.142;9.960;2023-05-27T13:24:44;8.13;;;3.72;;
39442;SDS011;25147;52.142;9.960;2023-05-27T13:27:11;9.30;;;4.28;;
39442;SDS011;25147;52.142;9.960;2023-05-27T13:29:39;7.88;;;3.83;;
39442;SDS011;25147;52.142;9.960;2023-05-27T13:32:06;10.15;;;3.80;;
39442;SDS011;25147;52.142;9.960;2023-05-27T13:34:34;8.00;;;3.78;;
39442;SDS011;25147;52.142;9.960;2023-05-27T13:37:01;9.18;;;3.97;;
39442;SDS011;25147;52.142;9.960;2023-05-27T13:39:28;5.43;;;3.17;;
39442;SDS011;25147;52.142;9.960;2023-05-27T13:41:55;7.15;;;3.95;;
39442;SDS011;25147;52.142;9.960;2023-05-27T13:44:22;9.48;;;3.80;;
39442;SDS011;25147;52.142;9.960;2023-05-27T13:46:49;10.48;;;3.75;;
39442;SDS011;25147;52.142;9.960;2023-05-27T13:49:16;10.93;;;4.25;;
39442;SDS011;25147;52.142;9.960;2023-05-27T13:51:44;7.32;;;3.70;;
39442;SDS011;25147;52.142;9.960;2023-05-27T13:54:11;10.60;;;3.80;;
39442;SDS011;25147;52.142;9.960;2023-05-27T13:56:38;8.95;;;4.00;;
39442;SDS011;25147;52.142;9.960;2023-05-27T13:59:08;8.52;;;3.58;;
39442;SDS011;25147;52.142;9.960;2023-05-27T14:01:35;7.38;;;3.92;;
39442;SDS011;25147;52.142;9.960;2023-05-27T14:04:02;6.90;;;3.72;;
39442;SDS011;25147;52.142;9.960;2023-05-27T14:06:29;8.63;;;3.70;;
39442;SDS011;25147;52.142;9.960;2023-05-27T14:08:57;8.77;;;3.88;;
39442;SDS011;25147;52.142;9.960;2023-05-27T14:11:24;10.23;;;3.67;;
39442;SDS011;25147;52.142;9.960;2023-05-27T14:13:52;10.70;;;4.00;;
39442;SDS011;25147;52.142;9.960;2023-05-27T14:16:20;6.60;;;3.65;;
39442;SDS011;25147;52.142;9.960;2023-05-27T14:18:48;15.20;;;5.22;;
39442;SDS011;25147;52.142;9.960;2023-05-27T14:21:14;9.00;;;3.85;;
39442;SDS011;25147;52.142;9.960;2023-05-27T14:23:41;10.35;;;4.20;;
39442;SDS011;25147;52.142;9.960;2023-05-27T14:26:10;8.02;;;3.88;;
39442;SDS011;25147;52.142;9.960;2023-05-27T14:28:36;9.82;;;4.00;;
39442;SDS011;25147;52.142;9.960;2023-05-27T14:31:03;7.35;;;3.80;;
39442;SDS011;25147;52.142;9.960;2023-05-27T14:33:30;10.55;;;4.25;;
39442;SDS011;25147;52.142;9.960;2023-05-27T14:35:56;9.73;;;4.15;;
39442;SDS011;25147;52.142;9.960;2023-05-27T14:38:25;5.68;;;3.67;;
39442;SDS011;25147;52.142;9.960;2023-05-27T14:40:51;9.38;;;4.00;;